sensor_id;sensor_type;location;lat;lon;timestamp;pressure;altitude;pressure_sealevel;temperature;humidity
22241;BME280;11289;52.524;13.694;2022-08-21T00:13:13;100880.00;;;19.36;86.05
22241;BME280;11289;52.524;13.694;2022-08-21T00:16:00;100882.03;;;19.35;86.17
22241;BME280;11289;52.524;13.694;2022-08-21T00:18:25;100910.03;;;19.58;86.17
22241;BME280;11289;52.524;13.694;2022-08-21T00:20:51;100881.31;;;19.42;86.18
22241;BME280;11289;52.524;13.694;2022-08-21T00:23:17;100891.00;;;19.48;86.00
22241;BME280;11289;52.524;13.694;2022-08-21T00:25:43;100910.50;;;19.67;86.02
22241;BME280;11289;52.524;13.694;2022-08-21T00:28:09;100876.84;;;19.41;85.59
22241;BME280;11289;52.524;13.694;2022-08-21T00:30:36;100918.97;;;19.67;85.56
22241;BME280;11289;52.524;13.694;2022-08-21T00:33:02;100875.63;;;19.38;85.62
22241;BME280;11289;52.524;13.694;2022-08-21T00:35:33;100890.56;;;19.46;85.46
22241;BME280;11289;52.524;13.694;2022-08-21T00:37:59;100909.63;;;19.56;85.57
22241;BME280;11289;52.524;13.694;2022-08-21T00:40:34;100875.53;;;19.31;85.65
22241;BME280;11289;52.524;13.694;2022-08-21T00:46:31;100903.81;;;19.42;85.58
22241;BME280;11289;52.524;13.694;2022-08-21T00:48:57;100920.03;;;19.56;85.35
22241;BME280;11289;52.524;13.694;2022-08-21T00:51:37;100880.31;;;19.27;85.64
22241;BME280;11289;52.524;13.694;2022-08-21T00:54:03;100891.63;;;19.30;85.79
22241;BME280;11289;52.524;13.694;2022-08-21T00:56:29;100911.88;;;19.43;85.65
22241;BME280;11289;52.524;13.694;2022-08-21T01:02:02;100927.25;;;19.53;85.21
22241;BME280;11289;52.524;13.694;2022-08-21T01:04:28;100923.94;;;19.44;85.15
22241;BME280;11289;52.524;13.694;2022-08-21T01:07:06;100912.97;;;19.35;85.10
22241;BME280;11289;52.524;13.694;2022-08-21T01:09:32;100900.00;;;19.27;84.91
22241;BME280;11289;52.524;13.694;2022-08-21T01:11:58;100918.22;;;19.37;84.92
22241;BME280;11289;52.524;13.694;2022-08-21T01:14:24;100925.44;;;19.34;84.71
22241;BME280;11289;52.524;13.694;2022-08-21T01:16:51;100932.69;;;19.35;83.96
22241;BME280;11289;52.524;13.694;2022-08-21T01:19:18;100907.91;;;19.14;84.19
22241;BME280;11289;52.524;13.694;2022-08-21T01:21:45;100924.34;;;19.12;84.19
22241;BME280;11289;52.524;13.694;2022-08-21T01:24:13;100898.84;;;18.98;84.44
22241;BME280;11289;52.524;13.694;2022-08-21T01:26:39;100887.19;;;18.95;84.17
22241;BME280;11289;52.524;13.694;2022-08-21T01:29:46;100939.78;;;19.25;84.26
22241;BME280;11289;52.524;13.694;2022-08-21T01:32:18;100895.13;;;18.90;84.14
22241;BME280;11289;52.524;13.694;2022-08-21T01:34:46;100908.47;;;18.96;84.04
22241;BME280;11289;52.524;13.694;2022-08-21T01:37:12;100909.13;;;18.86;83.84
22241;BME280;11289;52.524;13.694;2022-08-21T01:39:38;100903.81;;;18.81;84.25
22241;BME280;11289;52.524;13.694;2022-08-21T01:42:04;100902.66;;;18.82;84.43
22241;BME280;11289;52.524;13.694;2022-08-21T01:44:29;100898.63;;;18.83;84.51
22241;BME280;11289;52.524;13.694;2022-08-21T01:46:57;100918.16;;;18.99;84.36
22241;BME280;11289;52.524;13.694;2022-08-21T01:49:22;100894.69;;;18.88;84.63
22241;BME280;11289;52.524;13.694;2022-08-21T01:51:48;100908.81;;;18.91;84.60
22241;BME280;11289;52.524;13.694;2022-08-21T01:54:14;100889.75;;;18.81;84.37
22241;BME280;11289;52.524;13.694;2022-08-21T01:56:43;100903.97;;;18.88;84.49
22241;BME280;11289;52.524;13.694;2022-08-21T01:59:10;100894.63;;;18.84;84.54
22241;BME280;11289;52.524;13.694;2022-08-21T02:01:36;100895.38;;;18.81;84.19
22241;BME280;11289;52.524;13.694;2022-08-21T02:04:02;100911.63;;;18.91;84.44
22241;BME280;11289;52.524;13.694;2022-08-21T02:06:27;100920.56;;;18.97;84.64
22241;BME280;11289;52.524;13.694;2022-08-21T02:08:53;100914.44;;;18.91;84.42
22241;BME280;11289;52.524;13.694;2022-08-21T02:11:19;100891.34;;;18.78;84.45
22241;BME280;11289;52.524;13.694;2022-08-21T02:13:44;100893.34;;;18.78;84.51
22241;BME280;11289;52.524;13.694;2022-08-21T02:16:13;100878.78;;;18.72;84.61
22241;BME280;11289;52.524;13.694;2022-08-21T02:18:41;100873.47;;;18.64;84.52
22241;BME280;11289;52.524;13.694;2022-08-21T02:21:07;100880.38;;;18.70;84.77
22241;BME280;11289;52.524;13.694;2022-08-21T02:23:33;100891.59;;;18.70;84.70
22241;BME280;11289;52.524;13.694;2022-08-21T02:26:06;100918.41;;;18.87;84.62
22241;BME280;11289;52.524;13.694;2022-08-21T02:28:40;100900.47;;;18.72;84.33
22241;BME280;11289;52.524;13.694;2022-08-21T02:31:06;100913.03;;;18.78;84.27
22241;BME280;11289;52.524;13.694;2022-08-21T02:33:32;100900.44;;;18.68;84.47
22241;BME280;11289;52.524;13.694;2022-08-21T02:35:59;100920.25;;;18.79;84.03
22241;BME280;11289;52.524;13.694;2022-08-21T02:38:28;100925.84;;;18.75;84.36
22241;BME280;11289;52.524;13.694;2022-08-21T02:40:59;100918.53;;;18.71;84.22
22241;BME280;11289;52.524;13.694;2022-08-21T02:46:33;100920.88;;;18.65;84.12
22241;BME280;11289;52.524;13.694;2022-08-21T02:49:05;100913.41;;;18.50;83.84
22241;BME280;11289;52.524;13.694;2022-08-21T02:51:30;100913.88;;;18.55;83.90
22241;BME280;11289;52.524;13.694;2022-08-21T02:53:56;100879.03;;;18.33;83.67
22241;BME280;11289;52.524;13.694;2022-08-21T02:56:21;100932.06;;;18.61;83.58
22241;BME280;11289;52.524;13.694;2022-08-21T02:58:52;100894.34;;;18.36;83.72
22241;BME280;11289;52.524;13.694;2022-08-21T03:01:20;100890.53;;;18.24;83.61
22241;BME280;11289;52.524;13.694;2022-08-21T03:04:07;100889.25;;;18.18;83.68
22241;BME280;11289;52.524;13.694;2022-08-21T03:06:40;100899.75;;;18.25;83.43
22241;BME280;11289;52.524;13.694;2022-08-21T03:09:19;100895.16;;;18.13;83.29
22241;BME280;11289;52.524;13.694;2022-08-21T03:11:50;100895.59;;;18.15;83.47
22241;BME280;11289;52.524;13.694;2022-08-21T03:14:29;100918.38;;;18.33;83.64
22241;BME280;11289;52.524;13.694;2022-08-21T03:16:55;100889.91;;;18.12;83.56
22241;BME280;11289;52.524;13.694;2022-08-21T03:19:26;100891.56;;;18.13;83.79
22241;BME280;11289;52.524;13.694;2022-08-21T03:21:57;100914.31;;;18.31;83.11
22241;BME280;11289;52.524;13.694;2022-08-21T03:24:34;100919.56;;;18.32;83.44
22241;BME280;11289;52.524;13.694;2022-08-21T03:29:39;100891.56;;;18.13;83.24
22241;BME280;11289;52.524;13.694;2022-08-21T03:32:06;100878.16;;;18.02;82.91
22241;BME280;11289;52.524;13.694;2022-08-21T03:34:35;100914.16;;;18.20;83.34
22241;BME280;11289;52.524;13.694;2022-08-21T03:37:00;100908.03;;;18.14;83.44
22241;BME280;11289;52.524;13.694;2022-08-21T03:39:26;100912.03;;;18.13;83.05
22241;BME280;11289;52.524;13.694;2022-08-21T03:42:02;100885.63;;;17.95;83.15
22241;BME280;11289;52.524;13.694;2022-08-21T03:44:27;100891.22;;;17.95;83.13
22241;BME280;11289;52.524;13.694;2022-08-21T03:46:57;100904.53;;;17.98;83.10
22241;BME280;11289;52.524;13.694;2022-08-21T03:49:51;100943.09;;;18.24;82.93
22241;BME280;11289;52.524;13.694;2022-08-21T03:52:17;100899.22;;;17.92;82.81
22241;BME280;11289;52.524;13.694;2022-08-21T03:54:44;100882.97;;;17.82;82.62
22241;BME280;11289;52.524;13.694;2022-08-21T03:57:09;100921.97;;;18.07;82.65
22241;BME280;11289;52.524;13.694;2022-08-21T03:59:37;100919.44;;;18.02;82.88
22241;BME280;11289;52.524;13.694;2022-08-21T04:02:06;100892.16;;;17.79;83.07
22241;BME280;11289;52.524;13.694;2022-08-21T04:04:33;100889.34;;;17.79;83.01
22241;BME280;11289;52.524;13.694;2022-08-21T04:07:04;100904.19;;;17.80;82.93
22241;BME280;11289;52.524;13.694;2022-08-21T04:09:36;100908.53;;;17.77;82.90
22241;BME280;11289;52.524;13.694;2022-08-21T04:12:13;100924.94;;;17.95;82.78
22241;BME280;11289;52.524;13.694;2022-08-21T04:14:41;100904.94;;;17.77;82.97
22241;BME280;11289;52.524;13.694;2022-08-21T04:17:07;100924.41;;;17.89;82.86
22241;BME280;11289;52.524;13.694;2022-08-21T04:19:44;100926.41;;;17.88;83.00
22241;BME280;11289;52.524;13.694;2022-08-21T04:22:12;100920.59;;;17.78;82.84
22241;BME280;11289;52.524;13.694;2022-08-21T04:24:38;100934.56;;;17.94;82.76
22241;BME280;11289;52.524;13.694;2022-08-21T04:27:04;100919.78;;;17.77;82.52
22241;BME280;11289;52.524;13.694;2022-08-21T04:35:55;100925.53;;;17.84;82.53
22241;BME280;11289;52.524;13.694;2022-08-21T04:38:23;100925.41;;;17.77;82.70
22241;BME280;11289;52.524;13.694;2022-08-21T04:40:49;100903.88;;;17.62;82.52
22241;BME280;11289;52.524;13.694;2022-08-21T04:43:19;100944.44;;;17.87;82.66
22241;BME280;11289;52.524;13.694;2022-08-21T04:45:52;100912.34;;;17.65;82.16
22241;BME280;11289;52.524;13.694;2022-08-21T05:13:01;100952.44;;;17.85;82.03
22241;BME280;11289;52.524;13.694;2022-08-21T05:20:07;100956.41;;;17.84;82.06
22241;BME280;11289;52.524;13.694;2022-08-21T05:23:42;100961.22;;;17.84;82.05
22241;BME280;11289;52.524;13.694;2022-08-21T05:27:05;100939.28;;;17.70;82.35
22241;BME280;11289;52.524;13.694;2022-08-21T05:30:15;100910.06;;;17.51;82.07
22241;BME280;11289;52.524;13.694;2022-08-21T05:33:40;100921.50;;;17.62;82.11
22241;BME280;11289;52.524;13.694;2022-08-21T05:37:01;100947.81;;;17.73;82.44
22241;BME280;11289;52.524;13.694;2022-08-21T05:40:30;100981.84;;;17.91;82.37
22241;BME280;11289;52.524;13.694;2022-08-21T05:43:36;100934.94;;;17.72;82.20
22241;BME280;11289;52.524;13.694;2022-08-21T05:47:06;100923.56;;;17.65;81.90
22241;BME280;11289;52.524;13.694;2022-08-21T05:50:34;100931.63;;;17.67;82.22
22241;BME280;11289;52.524;13.694;2022-08-21T05:53:36;100963.28;;;17.87;81.67
22241;BME280;11289;52.524;13.694;2022-08-21T05:57:05;100923.56;;;17.65;82.26
22241;BME280;11289;52.524;13.694;2022-08-21T06:00:23;100964.03;;;17.84;81.51
22241;BME280;11289;52.524;13.694;2022-08-21T06:03:00;100929.06;;;17.58;81.62
22241;BME280;11289;52.524;13.694;2022-08-21T07:29:15;100984.31;;;19.46;73.52
22241;BME280;11289;52.524;13.694;2022-08-21T07:31:50;100953.66;;;19.41;73.45
22241;BME280;11289;52.524;13.694;2022-08-21T07:34:15;100950.13;;;19.48;74.47
22241;BME280;11289;52.524;13.694;2022-08-21T07:36:41;100936.13;;;19.55;74.22
22241;BME280;11289;52.524;13.694;2022-08-21T07:39:24;100935.88;;;19.67;70.29
22241;BME280;11289;52.524;13.694;2022-08-21T07:42:08;100943.63;;;19.78;71.46
22241;BME280;11289;52.524;13.694;2022-08-21T07:44:35;100956.63;;;19.86;72.09
22241;BME280;11289;52.524;13.694;2022-08-21T07:47:04;100943.03;;;19.95;71.10
22241;BME280;11289;52.524;13.694;2022-08-21T07:49:29;100956.84;;;20.08;68.11
22241;BME280;11289;52.524;13.694;2022-08-21T07:51:56;100980.22;;;20.12;70.87
22241;BME280;11289;52.524;13.694;2022-08-21T07:54:22;100976.25;;;20.16;69.37
22241;BME280;11289;52.524;13.694;2022-08-21T07:56:47;100955.34;;;20.21;70.29
22241;BME280;11289;52.524;13.694;2022-08-21T07:59:13;100931.88;;;20.10;69.36
22241;BME280;11289;52.524;13.694;2022-08-21T08:01:38;100982.94;;;20.46;68.17
22241;BME280;11289;52.524;13.694;2022-08-21T08:04:03;100954.56;;;20.24;68.88
22241;BME280;11289;52.524;13.694;2022-08-21T08:06:30;100948.56;;;20.29;67.94
22241;BME280;11289;52.524;13.694;2022-08-21T08:08:56;100967.31;;;20.56;68.36
22241;BME280;11289;52.524;13.694;2022-08-21T08:11:30;100936.97;;;20.42;67.39
22241;BME280;11289;52.524;13.694;2022-08-21T08:13:57;100971.47;;;20.69;66.84
22241;BME280;11289;52.524;13.694;2022-08-21T08:16:27;100975.97;;;20.81;67.35
22241;BME280;11289;52.524;13.694;2022-08-21T08:18:56;100953.00;;;20.79;65.76
22241;BME280;11289;52.524;13.694;2022-08-21T08:21:22;100943.69;;;20.71;66.23
22241;BME280;11289;52.524;13.694;2022-08-21T08:23:48;100939.69;;;20.76;63.68
22241;BME280;11289;52.524;13.694;2022-08-21T08:26:17;100985.84;;;21.09;63.98
22241;BME280;11289;52.524;13.694;2022-08-21T08:28:43;100934.97;;;20.94;65.39
22241;BME280;11289;52.524;13.694;2022-08-21T08:31:09;100958.09;;;21.25;64.06
22241;BME280;11289;52.524;13.694;2022-08-21T08:33:35;100945.63;;;21.37;64.30
22241;BME280;11289;52.524;13.694;2022-08-21T08:36:01;100967.97;;;21.71;61.83
22241;BME280;11289;52.524;13.694;2022-08-21T08:38:27;100969.22;;;21.84;62.32
22241;BME280;11289;52.524;13.694;2022-08-21T08:41:06;100971.69;;;22.00;62.00
22241;BME280;11289;52.524;13.694;2022-08-21T08:44:00;100949.06;;;22.11;61.61
22241;BME280;11289;52.524;13.694;2022-08-21T08:46:37;100957.19;;;22.34;59.61
22241;BME280;11289;52.524;13.694;2022-08-21T09:12:53;100944.59;;;22.86;56.17
22241;BME280;11289;52.524;13.694;2022-08-21T09:29:28;100942.63;;;22.72;56.97
22241;BME280;11289;52.524;13.694;2022-08-21T09:45:46;100934.53;;;22.70;55.14
22241;BME280;11289;52.524;13.694;2022-08-21T09:48:22;100945.00;;;22.77;54.47
22241;BME280;11289;52.524;13.694;2022-08-21T11:39:39;100969.75;;;26.90;41.54
22241;BME280;11289;52.524;13.694;2022-08-21T11:42:24;100974.84;;;26.79;42.60
22241;BME280;11289;52.524;13.694;2022-08-21T11:45:02;100967.22;;;26.72;42.66
22241;BME280;11289;52.524;13.694;2022-08-21T11:50:36;100964.16;;;26.35;43.87
22241;BME280;11289;52.524;13.694;2022-08-21T11:53:36;100960.56;;;26.31;42.10
22241;BME280;11289;52.524;13.694;2022-08-21T11:56:03;100962.81;;;26.20;41.89
22241;BME280;11289;52.524;13.694;2022-08-21T11:58:41;100955.81;;;26.24;42.77
22241;BME280;11289;52.524;13.694;2022-08-21T12:01:38;100961.28;;;26.39;41.80
22241;BME280;11289;52.524;13.694;2022-08-21T12:04:30;100966.78;;;26.50;41.60
22241;BME280;11289;52.524;13.694;2022-08-21T12:06:56;100967.69;;;26.67;40.64
22241;BME280;11289;52.524;13.694;2022-08-21T12:14:46;100953.72;;;27.40;38.92
22241;BME280;11289;52.524;13.694;2022-08-21T12:17:21;100955.00;;;27.55;37.69
22241;BME280;11289;52.524;13.694;2022-08-21T12:20:22;100954.09;;;27.78;37.70
22241;BME280;11289;52.524;13.694;2022-08-21T12:22:52;100961.50;;;27.92;38.06
22241;BME280;11289;52.524;13.694;2022-08-21T12:25:20;100953.19;;;28.18;36.83
22241;BME280;11289;52.524;13.694;2022-08-21T12:27:51;100953.34;;;28.27;36.51
22241;BME280;11289;52.524;13.694;2022-08-21T12:32:56;100958.88;;;28.18;37.13
22241;BME280;11289;52.524;13.694;2022-08-21T12:35:32;100956.19;;;28.27;37.82
22241;BME280;11289;52.524;13.694;2022-08-21T12:38:18;100939.81;;;28.15;36.13
22241;BME280;11289;52.524;13.694;2022-08-21T12:43:31;100949.50;;;27.65;36.45
22241;BME280;11289;52.524;13.694;2022-08-21T12:45:58;100954.91;;;27.59;37.27
22241;BME280;11289;52.524;13.694;2022-08-21T12:48:33;100959.50;;;27.36;38.84
22241;BME280;11289;52.524;13.694;2022-08-21T12:51:13;100953.91;;;27.49;39.36
22241;BME280;11289;52.524;13.694;2022-08-21T12:56:14;100940.88;;;27.68;38.61
22241;BME280;11289;52.524;13.694;2022-08-21T12:58:44;100938.69;;;27.56;37.68
22241;BME280;11289;52.524;13.694;2022-08-21T13:04:04;100941.41;;;27.79;37.77
22241;BME280;11289;52.524;13.694;2022-08-21T13:06:40;100948.13;;;27.89;37.15
22241;BME280;11289;52.524;13.694;2022-08-21T13:09:11;100953.00;;;28.09;35.72
22241;BME280;11289;52.524;13.694;2022-08-21T13:11:37;100942.28;;;28.13;36.46
22241;BME280;11289;52.524;13.694;2022-08-21T13:14:06;100936.03;;;28.35;36.17
22241;BME280;11289;52.524;13.694;2022-08-21T13:16:38;100939.00;;;28.64;34.97
22241;BME280;11289;52.524;13.694;2022-08-21T13:19:06;100938.88;;;28.68;34.99
22241;BME280;11289;52.524;13.694;2022-08-21T13:21:43;100938.81;;;28.71;35.44
22241;BME280;11289;52.524;13.694;2022-08-21T13:24:21;100940.13;;;28.66;35.09
22241;BME280;11289;52.524;13.694;2022-08-21T13:26:47;100931.31;;;28.61;33.07
22241;BME280;11289;52.524;13.694;2022-08-21T13:29:16;100930.34;;;28.51;33.00
22241;BME280;11289;52.524;13.694;2022-08-21T13:32:03;100940.69;;;28.12;33.35
22241;BME280;11289;52.524;13.694;2022-08-21T13:34:33;100941.94;;;28.11;33.16
22241;BME280;11289;52.524;13.694;2022-08-21T13:37:02;100947.97;;;27.96;33.07
22241;BME280;11289;52.524;13.694;2022-08-21T13:39:29;100942.59;;;27.82;30.73
22241;BME280;11289;52.524;13.694;2022-08-21T13:41:57;100941.34;;;27.83;32.59
22241;BME280;11289;52.524;13.694;2022-08-21T13:44:35;100942.75;;;27.75;33.40
22241;BME280;11289;52.524;13.694;2022-08-21T13:47:03;100951.19;;;27.62;33.00
22241;BME280;11289;52.524;13.694;2022-08-21T13:49:45;100946.50;;;27.72;33.84
22241;BME280;11289;52.524;13.694;2022-08-21T13:52:21;100945.41;;;28.02;32.63
22241;BME280;11289;52.524;13.694;2022-08-21T13:57:24;100939.38;;;28.00;32.16
22241;BME280;11289;52.524;13.694;2022-08-21T13:59:50;100923.31;;;28.39;29.82
22241;BME280;11289;52.524;13.694;2022-08-21T14:02:20;100924.25;;;28.49;30.25
22241;BME280;11289;52.524;13.694;2022-08-21T14:07:18;100929.81;;;29.15;30.12
22241;BME280;11289;52.524;13.694;2022-08-21T14:09:45;100925.31;;;29.30;30.47
22241;BME280;11289;52.524;13.694;2022-08-21T14:12:40;100922.28;;;29.21;30.09
22241;BME280;11289;52.524;13.694;2022-08-21T14:15:08;100916.44;;;29.12;28.46
22241;BME280;11289;52.524;13.694;2022-08-21T14:17:37;100915.94;;;29.00;29.50
22241;BME280;11289;52.524;13.694;2022-08-21T14:20:05;100913.31;;;28.93;31.21
22241;BME280;11289;52.524;13.694;2022-08-21T14:22:39;100918.84;;;29.13;30.29
22241;BME280;11289;52.524;13.694;2022-08-21T14:27:34;100915.97;;;29.56;29.82
22241;BME280;11289;52.524;13.694;2022-08-21T14:30:09;100916.66;;;29.60;28.82
22241;BME280;11289;52.524;13.694;2022-08-21T14:32:40;100911.22;;;29.23;29.00
22241;BME280;11289;52.524;13.694;2022-08-21T14:35:06;100901.88;;;28.93;30.00
22241;BME280;11289;52.524;13.694;2022-08-21T14:37:32;100908.28;;;28.97;28.71
22241;BME280;11289;52.524;13.694;2022-08-21T14:39:57;100899.16;;;29.03;29.67
22241;BME280;11289;52.524;13.694;2022-08-21T14:42:23;100884.72;;;28.93;28.87
22241;BME280;11289;52.524;13.694;2022-08-21T14:44:50;100901.59;;;28.42;29.00
22241;BME280;11289;52.524;13.694;2022-08-21T14:47:16;100907.75;;;28.40;31.05
22241;BME280;11289;52.524;13.694;2022-08-21T14:49:41;100903.72;;;28.71;30.63
22241;BME280;11289;52.524;13.694;2022-08-21T14:52:08;100902.47;;;28.72;31.46
22241;BME280;11289;52.524;13.694;2022-08-21T14:54:33;100885.81;;;28.37;29.58
22241;BME280;11289;52.524;13.694;2022-08-21T14:57:04;100909.38;;;28.08;30.45
22241;BME280;11289;52.524;13.694;2022-08-21T14:59:30;100913.38;;;27.94;30.46
22241;BME280;11289;52.524;13.694;2022-08-21T15:01:57;100903.81;;;27.85;31.11
22241;BME280;11289;52.524;13.694;2022-08-21T15:04:23;100911.38;;;27.75;32.37
22241;BME280;11289;52.524;13.694;2022-08-21T15:06:48;100911.75;;;27.20;31.98
22241;BME280;11289;52.524;13.694;2022-08-21T15:09:14;100902.47;;;26.96;33.72
22241;BME280;11289;52.524;13.694;2022-08-21T15:11:39;100913.13;;;26.92;34.40
22241;BME280;11289;52.524;13.694;2022-08-21T15:14:08;100917.16;;;26.95;33.56
22241;BME280;11289;52.524;13.694;2022-08-21T15:16:36;100911.97;;;26.89;34.26
22241;BME280;11289;52.524;13.694;2022-08-21T15:19:01;100919.94;;;26.98;34.85
22241;BME280;11289;52.524;13.694;2022-08-21T15:21:27;100911.63;;;27.07;33.40
22241;BME280;11289;52.524;13.694;2022-08-21T15:23:52;100918.91;;;27.28;32.95
22241;BME280;11289;52.524;13.694;2022-08-21T15:26:20;100913.91;;;27.36;33.35
22241;BME280;11289;52.524;13.694;2022-08-21T15:28:47;100913.03;;;27.56;33.27
22241;BME280;11289;52.524;13.694;2022-08-21T15:31:12;100908.69;;;27.68;33.46
22241;BME280;11289;52.524;13.694;2022-08-21T15:33:38;100902.28;;;27.63;32.87
22241;BME280;11289;52.524;13.694;2022-08-21T15:36:03;100912.53;;;27.61;32.66
22241;BME280;11289;52.524;13.694;2022-08-21T15:38:29;100912.84;;;27.47;33.59
22241;BME280;11289;52.524;13.694;2022-08-21T15:40:55;100888.72;;;27.31;33.46
22241;BME280;11289;52.524;13.694;2022-08-21T15:43:29;100892.34;;;27.35;32.86
22241;BME280;11289;52.524;13.694;2022-08-21T15:45:55;100895.56;;;27.17;31.16
22241;BME280;11289;52.524;13.694;2022-08-21T15:48:21;100906.38;;;27.06;33.75
22241;BME280;11289;52.524;13.694;2022-08-21T15:50:47;100912.13;;;27.02;35.04
22241;BME280;11289;52.524;13.694;2022-08-21T15:53:12;100904.53;;;26.96;34.46
22241;BME280;11289;52.524;13.694;2022-08-21T15:55:38;100908.81;;;26.84;34.36
22241;BME280;11289;52.524;13.694;2022-08-21T15:58:04;100893.28;;;26.65;33.93
22241;BME280;11289;52.524;13.694;2022-08-21T16:00:32;100909.06;;;26.49;33.99
22241;BME280;11289;52.524;13.694;2022-08-21T16:03:03;100915.88;;;26.32;35.11
22241;BME280;11289;52.524;13.694;2022-08-21T16:05:29;100892.59;;;26.13;36.45
22241;BME280;11289;52.524;13.694;2022-08-21T16:07:54;100904.09;;;26.06;37.82
22241;BME280;11289;52.524;13.694;2022-08-21T16:10:24;100906.81;;;25.86;38.24
22241;BME280;11289;52.524;13.694;2022-08-21T16:12:55;100894.22;;;25.60;37.06
22241;BME280;11289;52.524;13.694;2022-08-21T16:15:21;100885.91;;;25.45;36.75
22241;BME280;11289;52.524;13.694;2022-08-21T16:17:49;100908.72;;;25.38;38.44
22241;BME280;11289;52.524;13.694;2022-08-21T16:20:19;100897.06;;;25.29;39.14
22241;BME280;11289;52.524;13.694;2022-08-21T16:22:45;100902.50;;;25.16;40.18
22241;BME280;11289;52.524;13.694;2022-08-21T16:25:12;100901.81;;;25.05;40.99
22241;BME280;11289;52.524;13.694;2022-08-21T16:27:37;100907.22;;;24.92;42.30
22241;BME280;11289;52.524;13.694;2022-08-21T16:30:06;100901.63;;;24.84;42.35
22241;BME280;11289;52.524;13.694;2022-08-21T16:32:32;100903.41;;;24.71;42.35
22241;BME280;11289;52.524;13.694;2022-08-21T16:35:00;100910.81;;;24.58;43.71
22241;BME280;11289;52.524;13.694;2022-08-21T16:37:25;100920.25;;;24.47;44.00
22241;BME280;11289;52.524;13.694;2022-08-21T16:39:51;100910.19;;;24.39;43.67
22241;BME280;11289;52.524;13.694;2022-08-21T16:42:23;100920.81;;;24.28;44.54
22241;BME280;11289;52.524;13.694;2022-08-21T16:44:50;100881.78;;;23.97;44.97
22241;BME280;11289;52.524;13.694;2022-08-21T16:47:15;100861.63;;;23.81;45.57
22241;BME280;11289;52.524;13.694;2022-08-21T16:49:41;100915.38;;;23.99;46.09
22241;BME280;11289;52.524;13.694;2022-08-21T16:52:06;100900.09;;;23.82;46.66
22241;BME280;11289;52.524;13.694;2022-08-21T16:54:32;100915.53;;;23.77;46.43
22241;BME280;11289;52.524;13.694;2022-08-21T16:56:58;100911.53;;;23.68;46.86
22241;BME280;11289;52.524;13.694;2022-08-21T16:59:24;100912.41;;;23.54;47.70
22241;BME280;11289;52.524;13.694;2022-08-21T17:01:51;100914.88;;;23.44;48.41
22241;BME280;11289;52.524;13.694;2022-08-21T17:04:18;100914.50;;;23.35;48.62
22241;BME280;11289;52.524;13.694;2022-08-21T17:06:45;100911.75;;;23.24;48.42
22241;BME280;11289;52.524;13.694;2022-08-21T17:09:11;100921.47;;;23.16;49.37
22241;BME280;11289;52.524;13.694;2022-08-21T17:11:39;100915.84;;;23.05;49.78
22241;BME280;11289;52.524;13.694;2022-08-21T17:14:12;100884.38;;;22.82;49.79
22241;BME280;11289;52.524;13.694;2022-08-21T17:16:39;100920.75;;;22.90;50.41
22241;BME280;11289;52.524;13.694;2022-08-21T17:19:05;100912.28;;;22.80;50.93
22241;BME280;11289;52.524;13.694;2022-08-21T17:21:30;100917.13;;;22.75;51.69
22241;BME280;11289;52.524;13.694;2022-08-21T17:23:56;100921.22;;;22.67;52.25
22241;BME280;11289;52.524;13.694;2022-08-21T17:26:21;100911.94;;;22.56;52.88
22241;BME280;11289;52.524;13.694;2022-08-21T17:28:47;100917.19;;;22.50;53.13
22241;BME280;11289;52.524;13.694;2022-08-21T17:31:13;100917.19;;;22.47;53.78
22241;BME280;11289;52.524;13.694;2022-08-21T17:33:43;100911.94;;;22.38;54.25
22241;BME280;11289;52.524;13.694;2022-08-21T17:36:16;100903.03;;;22.25;54.41
22241;BME280;11289;52.524;13.694;2022-08-21T17:38:42;100909.09;;;22.23;53.91
22241;BME280;11289;52.524;13.694;2022-08-21T17:41:07;100917.97;;;22.22;53.52
22241;BME280;11289;52.524;13.694;2022-08-21T17:43:33;100909.50;;;22.11;54.81
22241;BME280;11289;52.524;13.694;2022-08-21T17:45:59;100923.22;;;22.05;54.74
22241;BME280;11289;52.524;13.694;2022-08-21T17:48:25;100916.34;;;21.99;54.95
22241;BME280;11289;52.524;13.694;2022-08-21T17:50:50;100915.16;;;21.93;54.93
22241;BME280;11289;52.524;13.694;2022-08-21T17:53:16;100913.13;;;21.90;54.95
22241;BME280;11289;52.524;13.694;2022-08-21T17:55:41;100913.50;;;21.81;54.68
22241;BME280;11289;52.524;13.694;2022-08-21T17:58:08;100919.53;;;21.69;55.08
22241;BME280;11289;52.524;13.694;2022-08-21T18:00:37;100923.13;;;21.62;55.37
22241;BME280;11289;52.524;13.694;2022-08-21T18:03:09;100928.78;;;21.62;56.30
22241;BME280;11289;52.524;13.694;2022-08-21T18:05:42;100932.00;;;21.53;55.97
22241;BME280;11289;52.524;13.694;2022-08-21T18:08:07;100932.78;;;21.47;56.76
22241;BME280;11289;52.524;13.694;2022-08-21T18:10:33;100940.84;;;21.48;57.06
22241;BME280;11289;52.524;13.694;2022-08-21T18:13:04;100930.72;;;21.40;57.41
22241;BME280;11289;52.524;13.694;2022-08-21T18:15:31;100937.16;;;21.33;57.74
22241;BME280;11289;52.524;13.694;2022-08-21T18:17:57;100943.19;;;21.32;57.61
22241;BME280;11289;52.524;13.694;2022-08-21T18:20:23;100940.72;;;21.23;58.05
22241;BME280;11289;52.524;13.694;2022-08-21T18:22:49;100951.63;;;21.21;58.05
22241;BME280;11289;52.524;13.694;2022-08-21T18:25:14;100951.59;;;21.14;58.17
22241;BME280;11289;52.524;13.694;2022-08-21T18:27:45;100942.69;;;21.04;58.40
22241;BME280;11289;52.524;13.694;2022-08-21T18:30:15;100954.34;;;21.03;58.55
22241;BME280;11289;52.524;13.694;2022-08-21T18:32:41;100951.88;;;20.94;58.98